Terminal Aerodrome Forecast
Issued by NWS Salt Lake City, UT

Home | Current Version | Previous Version | Text Only | Print | Product List | Glossary On
Versions: 1 2 3 4 5 6 7 8 9 10 11 12 13 14 15 16 17 18 19 20 21 22 23 24 25
000
FTUS45 KSLC 302345
TAFCDC
TAF
KCDC 302345Z 0100/0124 12010KT 6SM -RA SCT025 BKN030
     FM010300 04008KT P6SM -RA SCT030 BKN050
     FM010600 10007KT P6SM VCSH SCT040 BKN080
     FM011200 12008KT P6SM SCT050 BKN100=

USA.gov is the U.S. government's official web portal to all federal, state and local government web resources and services.